sensor_id;sensor_type;location;lat;lon;timestamp;P1;durP1;ratioP1;P2;durP2;ratioP2
44430;SDS011;30135;47.866;-4.222;2023-08-07T00:00:59;8.50;;;1.00;;
44430;SDS011;30135;47.866;-4.222;2023-08-07T00:03:25;8.20;;;1.20;;
44430;SDS011;30135;47.866;-4.222;2023-08-07T00:05:51;15.30;;;2.13;;
44430;SDS011;30135;47.866;-4.222;2023-08-07T00:08:24;8.38;;;1.77;;
44430;SDS011;30135;47.866;-4.222;2023-08-07T00:10:50;8.85;;;1.73;;
44430;SDS011;30135;47.866;-4.222;2023-08-07T00:13:16;14.25;;;1.65;;
44430;SDS011;30135;47.866;-4.222;2023-08-07T00:15:42;6.55;;;0.95;;
44430;SDS011;30135;47.866;-4.222;2023-08-07T00:18:08;12.68;;;2.35;;
44430;SDS011;30135;47.866;-4.222;2023-08-07T00:20:34;7.95;;;1.40;;
44430;SDS011;30135;47.866;-4.222;2023-08-07T00:23:00;5.50;;;1.20;;
44430;SDS011;30135;47.866;-4.222;2023-08-07T00:25:26;7.43;;;2.35;;
44430;SDS011;30135;47.866;-4.222;2023-08-07T00:27:52;9.02;;;1.42;;
44430;SDS011;30135;47.866;-4.222;2023-08-07T00:30:18;10.10;;;1.20;;
44430;SDS011;30135;47.866;-4.222;2023-08-07T00:32:44;16.42;;;1.80;;
44430;SDS011;30135;47.866;-4.222;2023-08-07T00:35:10;5.65;;;1.42;;
44430;SDS011;30135;47.866;-4.222;2023-08-07T00:37:36;4.90;;;1.63;;
44430;SDS011;30135;47.866;-4.222;2023-08-07T00:40:02;8.45;;;2.42;;
44430;SDS011;30135;47.866;-4.222;2023-08-07T00:42:29;10.55;;;1.35;;
44430;SDS011;30135;47.866;-4.222;2023-08-07T00:44:55;11.13;;;1.70;;
44430;SDS011;30135;47.866;-4.222;2023-08-07T00:47:21;4.45;;;1.48;;
44430;SDS011;30135;47.866;-4.222;2023-08-07T00:49:47;7.28;;;1.42;;
44430;SDS011;30135;47.866;-4.222;2023-08-07T00:52:14;6.72;;;1.17;;
44430;SDS011;30135;47.866;-4.222;2023-08-07T00:54:40;11.50;;;1.40;;
44430;SDS011;30135;47.866;-4.222;2023-08-07T00:57:09;9.85;;;1.80;;
44430;SDS011;30135;47.866;-4.222;2023-08-07T00:59:38;7.10;;;1.15;;
44430;SDS011;30135;47.866;-4.222;2023-08-07T01:02:05;4.53;;;1.05;;
44430;SDS011;30135;47.866;-4.222;2023-08-07T01:04:31;12.40;;;1.58;;
44430;SDS011;30135;47.866;-4.222;2023-08-07T01:06:57;6.95;;;1.02;;
44430;SDS011;30135;47.866;-4.222;2023-08-07T01:09:23;10.05;;;1.60;;
44430;SDS011;30135;47.866;-4.222;2023-08-07T01:11:52;12.52;;;1.27;;
44430;SDS011;30135;47.866;-4.222;2023-08-07T01:17:16;5.75;;;1.02;;
44430;SDS011;30135;47.866;-4.222;2023-08-07T01:19:46;4.68;;;2.10;;
44430;SDS011;30135;47.866;-4.222;2023-08-07T01:22:18;7.65;;;1.20;;
44430;SDS011;30135;47.866;-4.222;2023-08-07T01:24:45;7.32;;;1.30;;
44430;SDS011;30135;47.866;-4.222;2023-08-07T01:27:24;13.23;;;1.67;;
44430;SDS011;30135;47.866;-4.222;2023-08-07T01:35:27;6.43;;;1.27;;
44430;SDS011;30135;47.866;-4.222;2023-08-07T01:37:58;11.32;;;1.17;;
44430;SDS011;30135;47.866;-4.222;2023-08-07T01:40:26;11.48;;;1.83;;
44430;SDS011;30135;47.866;-4.222;2023-08-07T01:42:54;11.38;;;1.70;;
44430;SDS011;30135;47.866;-4.222;2023-08-07T01:45:24;9.00;;;1.00;;
44430;SDS011;30135;47.866;-4.222;2023-08-07T01:47:51;14.52;;;1.65;;
44430;SDS011;30135;47.866;-4.222;2023-08-07T01:50:18;2.45;;;0.77;;
44430;SDS011;30135;47.866;-4.222;2023-08-07T01:52:45;7.25;;;1.58;;
44430;SDS011;30135;47.866;-4.222;2023-08-07T01:55:15;7.50;;;1.10;;
44430;SDS011;30135;47.866;-4.222;2023-08-07T01:57:43;8.27;;;1.15;;
44430;SDS011;30135;47.866;-4.222;2023-08-07T02:00:09;18.58;;;2.80;;
44430;SDS011;30135;47.866;-4.222;2023-08-07T02:02:36;10.55;;;1.50;;
44430;SDS011;30135;47.866;-4.222;2023-08-07T02:05:02;6.90;;;1.33;;
44430;SDS011;30135;47.866;-4.222;2023-08-07T02:07:29;3.58;;;1.10;;
44430;SDS011;30135;47.866;-4.222;2023-08-07T02:09:56;6.30;;;1.95;;
44430;SDS011;30135;47.866;-4.222;2023-08-07T02:12:23;7.90;;;2.40;;
44430;SDS011;30135;47.866;-4.222;2023-08-07T02:14:52;6.95;;;2.17;;
44430;SDS011;30135;47.866;-4.222;2023-08-07T02:17:20;7.18;;;1.17;;
44430;SDS011;30135;47.866;-4.222;2023-08-07T02:19:47;7.15;;;1.50;;
44430;SDS011;30135;47.866;-4.222;2023-08-07T02:22:13;8.07;;;1.25;;
44430;SDS011;30135;47.866;-4.222;2023-08-07T02:24:39;5.07;;;1.42;;
44430;SDS011;30135;47.866;-4.222;2023-08-07T02:27:05;6.97;;;1.90;;
44430;SDS011;30135;47.866;-4.222;2023-08-07T02:29:31;5.75;;;1.10;;
44430;SDS011;30135;47.866;-4.222;2023-08-07T02:32:02;6.20;;;0.98;;
44430;SDS011;30135;47.866;-4.222;2023-08-07T02:34:29;8.25;;;1.50;;
44430;SDS011;30135;47.866;-4.222;2023-08-07T02:36:55;9.95;;;1.80;;
44430;SDS011;30135;47.866;-4.222;2023-08-07T02:39:22;15.50;;;1.55;;
44430;SDS011;30135;47.866;-4.222;2023-08-07T02:41:48;5.97;;;1.40;;
44430;SDS011;30135;47.866;-4.222;2023-08-07T02:44:14;8.93;;;2.65;;
44430;SDS011;30135;47.866;-4.222;2023-08-07T02:46:42;16.52;;;2.63;;
44430;SDS011;30135;47.866;-4.222;2023-08-07T02:49:11;1.75;;;0.65;;
44430;SDS011;30135;47.866;-4.222;2023-08-07T02:51:37;6.00;;;1.50;;
44430;SDS011;30135;47.866;-4.222;2023-08-07T02:54:03;12.90;;;2.00;;
44430;SDS011;30135;47.866;-4.222;2023-08-07T02:56:29;6.75;;;1.48;;
44430;SDS011;30135;47.866;-4.222;2023-08-07T02:58:55;3.53;;;1.10;;
44430;SDS011;30135;47.866;-4.222;2023-08-07T03:01:23;2.58;;;0.70;;
44430;SDS011;30135;47.866;-4.222;2023-08-07T03:03:49;10.20;;;1.55;;
44430;SDS011;30135;47.866;-4.222;2023-08-07T03:06:15;6.45;;;1.20;;
44430;SDS011;30135;47.866;-4.222;2023-08-07T03:08:41;5.75;;;1.08;;
44430;SDS011;30135;47.866;-4.222;2023-08-07T03:11:08;14.32;;;1.35;;
44430;SDS011;30135;47.866;-4.222;2023-08-07T03:13:34;2.65;;;1.15;;
44430;SDS011;30135;47.866;-4.222;2023-08-07T03:16:00;11.50;;;1.23;;
44430;SDS011;30135;47.866;-4.222;2023-08-07T03:18:28;3.92;;;1.30;;
44430;SDS011;30135;47.866;-4.222;2023-08-07T03:20:55;14.27;;;1.27;;
44430;SDS011;30135;47.866;-4.222;2023-08-07T03:23:22;3.80;;;0.93;;
44430;SDS011;30135;47.866;-4.222;2023-08-07T03:25:49;4.20;;;0.80;;
44430;SDS011;30135;47.866;-4.222;2023-08-07T03:28:16;6.30;;;1.80;;
44430;SDS011;30135;47.866;-4.222;2023-08-07T03:30:42;4.95;;;1.30;;
44430;SDS011;30135;47.866;-4.222;2023-08-07T03:33:09;7.90;;;1.77;;
44430;SDS011;30135;47.866;-4.222;2023-08-07T03:35:36;12.18;;;1.40;;
44430;SDS011;30135;47.866;-4.222;2023-08-07T03:38:02;5.93;;;1.23;;
44430;SDS011;30135;47.866;-4.222;2023-08-07T03:40:27;10.60;;;1.13;;
44430;SDS011;30135;47.866;-4.222;2023-08-07T03:42:54;7.35;;;1.13;;
44430;SDS011;30135;47.866;-4.222;2023-08-07T03:45:20;13.45;;;1.73;;
44430;SDS011;30135;47.866;-4.222;2023-08-07T03:47:46;8.70;;;1.65;;
44430;SDS011;30135;47.866;-4.222;2023-08-07T03:50:12;9.77;;;1.88;;
44430;SDS011;30135;47.866;-4.222;2023-08-07T03:52:38;6.05;;;1.60;;
44430;SDS011;30135;47.866;-4.222;2023-08-07T03:55:04;6.78;;;2.17;;
44430;SDS011;30135;47.866;-4.222;2023-08-07T03:57:46;6.03;;;1.08;;
44430;SDS011;30135;47.866;-4.222;2023-08-07T04:00:12;5.40;;;1.80;;
44430;SDS011;30135;47.866;-4.222;2023-08-07T04:02:39;5.00;;;1.33;;
44430;SDS011;30135;47.866;-4.222;2023-08-07T04:05:05;7.20;;;1.48;;
44430;SDS011;30135;47.866;-4.222;2023-08-07T04:07:32;6.30;;;1.60;;
44430;SDS011;30135;47.866;-4.222;2023-08-07T04:09:58;5.00;;;1.45;;
44430;SDS011;30135;47.866;-4.222;2023-08-07T04:12:24;7.43;;;1.88;;
44430;SDS011;30135;47.866;-4.222;2023-08-07T04:14:49;5.20;;;1.15;;
44430;SDS011;30135;47.866;-4.222;2023-08-07T04:17:16;3.85;;;1.50;;
44430;SDS011;30135;47.866;-4.222;2023-08-07T04:19:49;3.17;;;0.70;;
44430;SDS011;30135;47.866;-4.222;2023-08-07T04:22:15;3.83;;;1.23;;
44430;SDS011;30135;47.866;-4.222;2023-08-07T04:24:41;5.00;;;1.83;;
44430;SDS011;30135;47.866;-4.222;2023-08-07T04:27:07;10.60;;;1.50;;
44430;SDS011;30135;47.866;-4.222;2023-08-07T04:29:33;5.05;;;1.15;;
44430;SDS011;30135;47.866;-4.222;2023-08-07T04:32:00;7.72;;;1.08;;
44430;SDS011;30135;47.866;-4.222;2023-08-07T04:34:26;3.00;;;0.95;;
44430;SDS011;30135;47.866;-4.222;2023-08-07T04:36:52;3.88;;;1.25;;
44430;SDS011;30135;47.866;-4.222;2023-08-07T04:39:20;13.73;;;2.40;;
44430;SDS011;30135;47.866;-4.222;2023-08-07T04:41:46;10.20;;;2.05;;
44430;SDS011;30135;47.866;-4.222;2023-08-07T04:44:15;5.45;;;1.02;;
44430;SDS011;30135;47.866;-4.222;2023-08-07T04:46:41;7.18;;;1.25;;
44430;SDS011;30135;47.866;-4.222;2023-08-07T04:49:07;3.75;;;0.88;;
44430;SDS011;30135;47.866;-4.222;2023-08-07T04:51:33;1.90;;;0.70;;
44430;SDS011;30135;47.866;-4.222;2023-08-07T04:53:59;5.20;;;1.02;;
44430;SDS011;30135;47.866;-4.222;2023-08-07T04:56:25;4.93;;;1.00;;
44430;SDS011;30135;47.866;-4.222;2023-08-07T04:58:51;14.13;;;1.15;;
44430;SDS011;30135;47.866;-4.222;2023-08-07T05:01:17;3.10;;;0.82;;
44430;SDS011;30135;47.866;-4.222;2023-08-07T05:03:43;7.55;;;0.75;;
44430;SDS011;30135;47.866;-4.222;2023-08-07T05:06:09;3.78;;;1.45;;
44430;SDS011;30135;47.866;-4.222;2023-08-07T05:08:38;6.03;;;1.10;;
44430;SDS011;30135;47.866;-4.222;2023-08-07T05:11:04;3.85;;;1.10;;
44430;SDS011;30135;47.866;-4.222;2023-08-07T05:13:30;7.72;;;1.20;;
44430;SDS011;30135;47.866;-4.222;2023-08-07T05:15:56;5.72;;;1.30;;
44430;SDS011;30135;47.866;-4.222;2023-08-07T05:18:21;10.02;;;1.13;;
44430;SDS011;30135;47.866;-4.222;2023-08-07T05:20:47;3.72;;;1.25;;
44430;SDS011;30135;47.866;-4.222;2023-08-07T05:23:13;7.25;;;0.93;;
44430;SDS011;30135;47.866;-4.222;2023-08-07T05:25:40;5.40;;;1.00;;
44430;SDS011;30135;47.866;-4.222;2023-08-07T05:28:05;7.72;;;1.52;;
44430;SDS011;30135;47.866;-4.222;2023-08-07T05:30:31;3.22;;;1.20;;
44430;SDS011;30135;47.866;-4.222;2023-08-07T05:32:58;3.88;;;1.27;;
44430;SDS011;30135;47.866;-4.222;2023-08-07T05:35:24;3.97;;;1.08;;
44430;SDS011;30135;47.866;-4.222;2023-08-07T05:37:50;11.02;;;1.42;;
44430;SDS011;30135;47.866;-4.222;2023-08-07T05:40:16;5.07;;;1.08;;
44430;SDS011;30135;47.866;-4.222;2023-08-07T05:42:43;7.50;;;2.17;;
44430;SDS011;30135;47.866;-4.222;2023-08-07T05:45:09;4.05;;;1.67;;
44430;SDS011;30135;47.866;-4.222;2023-08-07T05:47:35;8.45;;;1.38;;
44430;SDS011;30135;47.866;-4.222;2023-08-07T05:50:02;14.25;;;1.60;;
44430;SDS011;30135;47.866;-4.222;2023-08-07T05:52:28;6.22;;;1.55;;
44430;SDS011;30135;47.866;-4.222;2023-08-07T05:54:57;3.47;;;1.00;;
44430;SDS011;30135;47.866;-4.222;2023-08-07T05:57:24;4.20;;;1.20;;
44430;SDS011;30135;47.866;-4.222;2023-08-07T05:59:50;5.40;;;0.80;;
44430;SDS011;30135;47.866;-4.222;2023-08-07T06:02:17;5.38;;;1.40;;
44430;SDS011;30135;47.866;-4.222;2023-08-07T06:04:43;13.20;;;1.98;;
44430;SDS011;30135;47.866;-4.222;2023-08-07T06:07:10;7.85;;;1.77;;
44430;SDS011;30135;47.866;-4.222;2023-08-07T06:09:36;10.82;;;2.65;;
44430;SDS011;30135;47.866;-4.222;2023-08-07T06:12:03;7.85;;;2.50;;
44430;SDS011;30135;47.866;-4.222;2023-08-07T06:14:30;7.32;;;1.65;;
44430;SDS011;30135;47.866;-4.222;2023-08-07T06:16:56;9.95;;;1.55;;
44430;SDS011;30135;47.866;-4.222;2023-08-07T06:19:23;11.57;;;1.33;;
44430;SDS011;30135;47.866;-4.222;2023-08-07T06:21:52;11.17;;;1.40;;
44430;SDS011;30135;47.866;-4.222;2023-08-07T06:24:19;11.20;;;2.45;;
44430;SDS011;30135;47.866;-4.222;2023-08-07T06:26:45;12.18;;;2.10;;
44430;SDS011;30135;47.866;-4.222;2023-08-07T06:29:12;9.02;;;1.70;;
44430;SDS011;30135;47.866;-4.222;2023-08-07T06:31:39;13.43;;;1.60;;
44430;SDS011;30135;47.866;-4.222;2023-08-07T06:34:05;15.27;;;1.75;;
44430;SDS011;30135;47.866;-4.222;2023-08-07T06:36:31;11.38;;;2.13;;
44430;SDS011;30135;47.866;-4.222;2023-08-07T06:38:58;10.15;;;3.70;;
44430;SDS011;30135;47.866;-4.222;2023-08-07T06:41:24;24.58;;;3.17;;
44430;SDS011;30135;47.866;-4.222;2023-08-07T06:43:50;12.02;;;2.70;;
44430;SDS011;30135;47.866;-4.222;2023-08-07T06:46:16;10.65;;;3.30;;
44430;SDS011;30135;47.866;-4.222;2023-08-07T06:48:43;9.85;;;3.33;;
44430;SDS011;30135;47.866;-4.222;2023-08-07T06:51:09;14.50;;;3.38;;
44430;SDS011;30135;47.866;-4.222;2023-08-07T06:53:35;16.75;;;4.05;;
44430;SDS011;30135;47.866;-4.222;2023-08-07T06:56:01;13.73;;;3.17;;
44430;SDS011;30135;47.866;-4.222;2023-08-07T06:58:27;11.50;;;3.58;;
44430;SDS011;30135;47.866;-4.222;2023-08-07T07:00:53;14.63;;;3.83;;
44430;SDS011;30135;47.866;-4.222;2023-08-07T07:03:19;10.20;;;3.85;;
44430;SDS011;30135;47.866;-4.222;2023-08-07T07:05:45;13.77;;;3.50;;
44430;SDS011;30135;47.866;-4.222;2023-08-07T07:08:12;10.23;;;3.08;;
44430;SDS011;30135;47.866;-4.222;2023-08-07T07:10:38;5.03;;;2.38;;
44430;SDS011;30135;47.866;-4.222;2023-08-07T07:13:05;7.15;;;3.00;;
44430;SDS011;30135;47.866;-4.222;2023-08-07T07:15:33;11.43;;;2.90;;
44430;SDS011;30135;47.866;-4.222;2023-08-07T07:17:59;6.00;;;2.20;;
44430;SDS011;30135;47.866;-4.222;2023-08-07T07:20:25;10.93;;;2.47;;
44430;SDS011;30135;47.866;-4.222;2023-08-07T07:22:51;6.28;;;2.33;;
44430;SDS011;30135;47.866;-4.222;2023-08-07T07:25:18;6.97;;;2.35;;
44430;SDS011;30135;47.866;-4.222;2023-08-07T07:27:43;8.60;;;2.58;;
44430;SDS011;30135;47.866;-4.222;2023-08-07T07:30:10;7.00;;;2.28;;
44430;SDS011;30135;47.866;-4.222;2023-08-07T07:32:36;6.65;;;3.50;;
44430;SDS011;30135;47.866;-4.222;2023-08-07T07:35:09;9.43;;;2.70;;
44430;SDS011;30135;47.866;-4.222;2023-08-07T07:37:35;15.57;;;3.17;;
44430;SDS011;30135;47.866;-4.222;2023-08-07T07:40:01;9.30;;;2.78;;
44430;SDS011;30135;47.866;-4.222;2023-08-07T07:42:27;3.97;;;1.83;;
44430;SDS011;30135;47.866;-4.222;2023-08-07T07:44:56;6.97;;;2.88;;
44430;SDS011;30135;47.866;-4.222;2023-08-07T07:47:22;11.20;;;2.95;;
44430;SDS011;30135;47.866;-4.222;2023-08-07T07:49:48;10.48;;;3.08;;
44430;SDS011;30135;47.866;-4.222;2023-08-07T07:52:29;9.95;;;2.75;;
44430;SDS011;30135;47.866;-4.222;2023-08-07T07:54:56;5.88;;;2.60;;
44430;SDS011;30135;47.866;-4.222;2023-08-07T07:57:22;15.27;;;2.50;;
44430;SDS011;30135;47.866;-4.222;2023-08-07T07:59:48;6.57;;;3.53;;
44430;SDS011;30135;47.866;-4.222;2023-08-07T08:02:14;9.75;;;3.10;;
44430;SDS011;30135;47.866;-4.222;2023-08-07T08:04:41;7.03;;;2.92;;
44430;SDS011;30135;47.866;-4.222;2023-08-07T08:07:07;10.25;;;3.00;;
44430;SDS011;30135;47.866;-4.222;2023-08-07T08:09:33;5.22;;;2.22;;
44430;SDS011;30135;47.866;-4.222;2023-08-07T08:11:59;8.32;;;3.15;;
44430;SDS011;30135;47.866;-4.222;2023-08-07T08:14:25;6.53;;;2.42;;
44430;SDS011;30135;47.866;-4.222;2023-08-07T08:16:51;8.38;;;2.80;;
44430;SDS011;30135;47.866;-4.222;2023-08-07T08:19:17;15.43;;;3.05;;
44430;SDS011;30135;47.866;-4.222;2023-08-07T08:21:43;6.03;;;2.97;;
44430;SDS011;30135;47.866;-4.222;2023-08-07T08:24:09;6.82;;;2.50;;
44430;SDS011;30135;47.866;-4.222;2023-08-07T08:26:38;11.98;;;2.90;;
44430;SDS011;30135;47.866;-4.222;2023-08-07T08:29:05;6.43;;;2.63;;
44430;SDS011;30135;47.866;-4.222;2023-08-07T08:31:34;11.82;;;2.97;;
44430;SDS011;30135;47.866;-4.222;2023-08-07T08:34:00;5.97;;;2.35;;
44430;SDS011;30135;47.866;-4.222;2023-08-07T08:36:26;14.43;;;3.25;;
44430;SDS011;30135;47.866;-4.222;2023-08-07T08:38:55;4.72;;;2.53;;
44430;SDS011;30135;47.866;-4.222;2023-08-07T08:41:23;8.70;;;3.33;;
44430;SDS011;30135;47.866;-4.222;2023-08-07T08:43:51;12.25;;;2.70;;
44430;SDS011;30135;47.866;-4.222;2023-08-07T08:46:19;6.88;;;2.22;;
44430;SDS011;30135;47.866;-4.222;2023-08-07T08:48:50;10.68;;;2.95;;
44430;SDS011;30135;47.866;-4.222;2023-08-07T08:51:21;12.68;;;2.78;;
44430;SDS011;30135;47.866;-4.222;2023-08-07T08:53:53;11.05;;;2.70;;
44430;SDS011;30135;47.866;-4.222;2023-08-07T08:56:21;9.00;;;2.60;;
44430;SDS011;30135;47.866;-4.222;2023-08-07T08:58:51;5.47;;;2.15;;
44430;SDS011;30135;47.866;-4.222;2023-08-07T09:01:18;12.85;;;2.50;;
44430;SDS011;30135;47.866;-4.222;2023-08-07T09:03:45;9.88;;;2.53;;
44430;SDS011;30135;47.866;-4.222;2023-08-07T09:06:12;11.85;;;2.25;;
44430;SDS011;30135;47.866;-4.222;2023-08-07T09:08:43;4.13;;;1.73;;
44430;SDS011;30135;47.866;-4.222;2023-08-07T09:11:12;7.13;;;2.28;;
44430;SDS011;30135;47.866;-4.222;2023-08-07T09:13:40;5.30;;;1.77;;
44430;SDS011;30135;47.866;-4.222;2023-08-07T09:16:08;9.88;;;1.77;;
44430;SDS011;30135;47.866;-4.222;2023-08-07T09:18:36;6.53;;;2.13;;
44430;SDS011;30135;47.866;-4.222;2023-08-07T09:21:03;6.07;;;1.83;;
44430;SDS011;30135;47.866;-4.222;2023-08-07T09:23:29;9.88;;;1.92;;
44430;SDS011;30135;47.866;-4.222;2023-08-07T09:26:01;7.53;;;1.75;;
44430;SDS011;30135;47.866;-4.222;2023-08-07T09:28:33;6.53;;;2.38;;
44430;SDS011;30135;47.866;-4.222;2023-08-07T09:30:59;4.70;;;1.30;;
44430;SDS011;30135;47.866;-4.222;2023-08-07T09:33:29;4.40;;;1.15;;
44430;SDS011;30135;47.866;-4.222;2023-08-07T09:35:59;5.32;;;1.50;;
44430;SDS011;30135;47.866;-4.222;2023-08-07T09:38:30;4.43;;;1.33;;
44430;SDS011;30135;47.866;-4.222;2023-08-07T09:41:01;3.40;;;1.77;;
44430;SDS011;30135;47.866;-4.222;2023-08-07T09:43:37;6.30;;;1.70;;
44430;SDS011;30135;47.866;-4.222;2023-08-07T09:46:06;3.65;;;1.08;;
44430;SDS011;30135;47.866;-4.222;2023-08-07T09:48:42;10.23;;;1.27;;
44430;SDS011;30135;47.866;-4.222;2023-08-07T09:51:09;4.93;;;1.40;;
44430;SDS011;30135;47.866;-4.222;2023-08-07T09:53:35;2.78;;;1.13;;
44430;SDS011;30135;47.866;-4.222;2023-08-07T09:56:02;2.47;;;1.00;;
44430;SDS011;30135;47.866;-4.222;2023-08-07T09:58:28;6.57;;;2.35;;
44430;SDS011;30135;47.866;-4.222;2023-08-07T10:00:55;11.68;;;1.05;;
44430;SDS011;30135;47.866;-4.222;2023-08-07T10:03:24;9.25;;;0.95;;
44430;SDS011;30135;47.866;-4.222;2023-08-07T10:05:51;4.68;;;1.02;;
44430;SDS011;30135;47.866;-4.222;2023-08-07T10:08:18;4.45;;;0.98;;
44430;SDS011;30135;47.866;-4.222;2023-08-07T10:10:44;2.60;;;0.70;;
44430;SDS011;30135;47.866;-4.222;2023-08-07T10:13:12;2.45;;;0.70;;
44430;SDS011;30135;47.866;-4.222;2023-08-07T10:15:39;9.75;;;0.70;;
44430;SDS011;30135;47.866;-4.222;2023-08-07T10:18:07;7.35;;;1.10;;
44430;SDS011;30135;47.866;-4.222;2023-08-07T10:20:34;2.85;;;0.73;;
44430;SDS011;30135;47.866;-4.222;2023-08-07T10:23:07;4.97;;;0.50;;
44430;SDS011;30135;47.866;-4.222;2023-08-07T10:25:39;2.15;;;1.63;;
44430;SDS011;30135;47.866;-4.222;2023-08-07T10:28:10;2.53;;;0.57;;
44430;SDS011;30135;47.866;-4.222;2023-08-07T10:30:42;2.67;;;0.57;;
44430;SDS011;30135;47.866;-4.222;2023-08-07T10:33:09;5.05;;;0.77;;
44430;SDS011;30135;47.866;-4.222;2023-08-07T10:35:37;6.13;;;0.95;;
44430;SDS011;30135;47.866;-4.222;2023-08-07T10:38:12;4.28;;;1.10;;
44430;SDS011;30135;47.866;-4.222;2023-08-07T10:43:30;1.15;;;0.40;;
44430;SDS011;30135;47.866;-4.222;2023-08-07T10:46:03;11.23;;;1.08;;
44430;SDS011;30135;47.866;-4.222;2023-08-07T10:48:42;3.88;;;0.75;;
44430;SDS011;30135;47.866;-4.222;2023-08-07T10:51:15;5.95;;;1.67;;
44430;SDS011;30135;47.866;-4.222;2023-08-07T10:53:45;5.68;;;1.45;;
44430;SDS011;30135;47.866;-4.222;2023-08-07T10:56:17;6.53;;;1.48;;
44430;SDS011;30135;47.866;-4.222;2023-08-07T10:58:56;5.80;;;1.63;;
44430;SDS011;30135;47.866;-4.222;2023-08-07T11:01:28;5.40;;;2.33;;
44430;SDS011;30135;47.866;-4.222;2023-08-07T11:04:11;4.68;;;1.73;;
44430;SDS011;30135;47.866;-4.222;2023-08-07T11:06:40;6.90;;;1.27;;
44430;SDS011;30135;47.866;-4.222;2023-08-07T11:09:08;4.22;;;1.05;;
44430;SDS011;30135;47.866;-4.222;2023-08-07T11:11:42;4.47;;;1.40;;
44430;SDS011;30135;47.866;-4.222;2023-08-07T11:14:12;4.85;;;1.40;;
44430;SDS011;30135;47.866;-4.222;2023-08-07T11:16:43;6.60;;;2.20;;
44430;SDS011;30135;47.866;-4.222;2023-08-07T11:19:11;2.50;;;1.30;;
44430;SDS011;30135;47.866;-4.222;2023-08-07T11:21:42;10.45;;;1.20;;
44430;SDS011;30135;47.866;-4.222;2023-08-07T11:24:13;3.65;;;1.23;;
44430;SDS011;30135;47.866;-4.222;2023-08-07T11:26:44;4.30;;;1.15;;
44430;SDS011;30135;47.866;-4.222;2023-08-07T11:29:10;3.35;;;1.15;;
44430;SDS011;30135;47.866;-4.222;2023-08-07T11:31:41;3.28;;;0.65;;
44430;SDS011;30135;47.866;-4.222;2023-08-07T11:34:07;4.82;;;1.33;;
44430;SDS011;30135;47.866;-4.222;2023-08-07T11:36:42;3.65;;;0.75;;
44430;SDS011;30135;47.866;-4.222;2023-08-07T11:39:09;2.88;;;0.77;;
44430;SDS011;30135;47.866;-4.222;2023-08-07T11:41:36;5.07;;;1.08;;
44430;SDS011;30135;47.866;-4.222;2023-08-07T11:44:02;2.38;;;0.80;;
44430;SDS011;30135;47.866;-4.222;2023-08-07T11:46:28;5.15;;;1.40;;
44430;SDS011;30135;47.866;-4.222;2023-08-07T11:48:55;5.18;;;0.70;;
44430;SDS011;30135;47.866;-4.222;2023-08-07T11:51:22;5.35;;;0.75;;
44430;SDS011;30135;47.866;-4.222;2023-08-07T11:53:48;3.15;;;0.55;;
44430;SDS011;30135;47.866;-4.222;2023-08-07T11:56:15;7.47;;;1.10;;
44430;SDS011;30135;47.866;-4.222;2023-08-07T11:58:43;3.30;;;0.60;;
44430;SDS011;30135;47.866;-4.222;2023-08-07T12:01:13;4.68;;;1.30;;
44430;SDS011;30135;47.866;-4.222;2023-08-07T12:06:24;9.65;;;0.70;;
44430;SDS011;30135;47.866;-4.222;2023-08-07T12:08:53;6.13;;;0.80;;
44430;SDS011;30135;47.866;-4.222;2023-08-07T12:11:21;3.13;;;0.55;;
44430;SDS011;30135;47.866;-4.222;2023-08-07T12:13:48;1.95;;;0.43;;
44430;SDS011;30135;47.866;-4.222;2023-08-07T12:16:15;2.65;;;0.73;;
44430;SDS011;30135;47.866;-4.222;2023-08-07T12:18:43;7.40;;;0.88;;
44430;SDS011;30135;47.866;-4.222;2023-08-07T12:21:17;3.67;;;0.50;;
44430;SDS011;30135;47.866;-4.222;2023-08-07T12:23:45;3.20;;;1.13;;
44430;SDS011;30135;47.866;-4.222;2023-08-07T12:26:13;4.45;;;0.47;;
44430;SDS011;30135;47.866;-4.222;2023-08-07T12:28:40;2.17;;;0.47;;
44430;SDS011;30135;47.866;-4.222;2023-08-07T12:31:06;1.67;;;0.45;;
44430;SDS011;30135;47.866;-4.222;2023-08-07T12:33:33;0.93;;;0.15;;
44430;SDS011;30135;47.866;-4.222;2023-08-07T12:35:59;5.65;;;0.60;;
44430;SDS011;30135;47.866;-4.222;2023-08-07T12:38:29;4.18;;;0.68;;
44430;SDS011;30135;47.866;-4.222;2023-08-07T12:40:55;3.13;;;0.43;;
44430;SDS011;30135;47.866;-4.222;2023-08-07T12:43:22;1.15;;;0.40;;
44430;SDS011;30135;47.866;-4.222;2023-08-07T12:45:48;4.30;;;0.90;;
44430;SDS011;30135;47.866;-4.222;2023-08-07T12:48:14;2.92;;;0.30;;
44430;SDS011;30135;47.866;-4.222;2023-08-07T12:50:41;3.35;;;0.43;;
44430;SDS011;30135;47.866;-4.222;2023-08-07T12:53:07;1.77;;;0.85;;
44430;SDS011;30135;47.866;-4.222;2023-08-07T12:55:34;3.72;;;0.40;;
44430;SDS011;30135;47.866;-4.222;2023-08-07T12:58:00;4.38;;;0.40;;
44430;SDS011;30135;47.866;-4.222;2023-08-07T13:00:27;2.80;;;0.40;;
44430;SDS011;30135;47.866;-4.222;2023-08-07T13:02:53;3.72;;;0.30;;
44430;SDS011;30135;47.866;-4.222;2023-08-07T13:05:21;3.47;;;0.35;;
44430;SDS011;30135;47.866;-4.222;2023-08-07T13:07:48;2.17;;;0.75;;
44430;SDS011;30135;47.866;-4.222;2023-08-07T13:10:17;1.67;;;0.50;;
44430;SDS011;30135;47.866;-4.222;2023-08-07T13:12:44;1.20;;;0.30;;
44430;SDS011;30135;47.866;-4.222;2023-08-07T13:15:13;1.50;;;0.38;;
44430;SDS011;30135;47.866;-4.222;2023-08-07T13:17:40;1.30;;;0.40;;
44430;SDS011;30135;47.866;-4.222;2023-08-07T13:20:14;6.47;;;0.40;;
44430;SDS011;30135;47.866;-4.222;2023-08-07T13:22:41;2.40;;;0.68;;
44430;SDS011;30135;47.866;-4.222;2023-08-07T13:25:10;4.25;;;0.20;;
44430;SDS011;30135;47.866;-4.222;2023-08-07T13:27:37;5.85;;;0.30;;
44430;SDS011;30135;47.866;-4.222;2023-08-07T13:30:04;15.40;;;0.50;;
44430;SDS011;30135;47.866;-4.222;2023-08-07T13:32:32;7.45;;;0.77;;
44430;SDS011;30135;47.866;-4.222;2023-08-07T13:34:58;2.28;;;0.43;;
44430;SDS011;30135;47.866;-4.222;2023-08-07T13:37:24;3.72;;;0.77;;
44430;SDS011;30135;47.866;-4.222;2023-08-07T13:39:51;4.00;;;0.40;;
44430;SDS011;30135;47.866;-4.222;2023-08-07T13:42:18;2.25;;;0.68;;
44430;SDS011;30135;47.866;-4.222;2023-08-07T13:44:45;2.50;;;0.47;;
44430;SDS011;30135;47.866;-4.222;2023-08-07T13:47:11;8.90;;;0.70;;
44430;SDS011;30135;47.866;-4.222;2023-08-07T13:49:39;4.00;;;0.25;;
44430;SDS011;30135;47.866;-4.222;2023-08-07T13:52:06;3.60;;;0.77;;
44430;SDS011;30135;47.866;-4.222;2023-08-07T13:54:32;1.10;;;0.40;;
44430;SDS011;30135;47.866;-4.222;2023-08-07T13:56:58;5.75;;;0.57;;
44430;SDS011;30135;47.866;-4.222;2023-08-07T13:59:24;3.95;;;0.70;;
44430;SDS011;30135;47.866;-4.222;2023-08-07T14:01:53;9.07;;;0.75;;
44430;SDS011;30135;47.866;-4.222;2023-08-07T14:04:21;2.80;;;0.43;;
44430;SDS011;30135;47.866;-4.222;2023-08-07T14:06:47;2.50;;;0.47;;
44430;SDS011;30135;47.866;-4.222;2023-08-07T14:09:13;2.97;;;0.40;;
44430;SDS011;30135;47.866;-4.222;2023-08-07T14:11:39;3.38;;;0.60;;
44430;SDS011;30135;47.866;-4.222;2023-08-07T14:14:06;2.63;;;0.45;;
44430;SDS011;30135;47.866;-4.222;2023-08-07T14:16:32;4.10;;;0.30;;
44430;SDS011;30135;47.866;-4.222;2023-08-07T14:18:58;4.78;;;0.50;;
44430;SDS011;30135;47.866;-4.222;2023-08-07T14:21:25;0.68;;;0.30;;
44430;SDS011;30135;47.866;-4.222;2023-08-07T14:23:51;3.28;;;0.50;;
44430;SDS011;30135;47.866;-4.222;2023-08-07T14:26:17;2.17;;;0.32;;
44430;SDS011;30135;47.866;-4.222;2023-08-07T14:28:46;1.25;;;0.25;;
44430;SDS011;30135;47.866;-4.222;2023-08-07T14:31:12;6.85;;;0.32;;
44430;SDS011;30135;47.866;-4.222;2023-08-07T14:33:38;2.00;;;0.30;;
44430;SDS011;30135;47.866;-4.222;2023-08-07T14:36:04;2.75;;;1.10;;
44430;SDS011;30135;47.866;-4.222;2023-08-07T14:38:31;2.05;;;0.60;;
44430;SDS011;30135;47.866;-4.222;2023-08-07T14:40:58;2.97;;;0.30;;
44430;SDS011;30135;47.866;-4.222;2023-08-07T14:43:30;2.60;;;0.50;;
44430;SDS011;30135;47.866;-4.222;2023-08-07T14:45:57;3.30;;;0.57;;